createdAt,value
2018-07-31T00:00:28.420Z,3.00
2018-07-31T00:02:56.800Z,3.43
2018-07-31T00:05:25.259Z,3.60
2018-07-31T00:07:53.950Z,3.40
2018-07-31T00:10:22.335Z,3.13
2018-07-31T00:12:50.719Z,3.10
2018-07-31T00:15:19.168Z,2.90
2018-07-31T00:17:47.570Z,2.83
2018-07-31T00:20:16.026Z,3.30
2018-07-31T00:22:44.397Z,3.00
2018-07-31T00:25:12.800Z,3.17
2018-07-31T00:27:41.238Z,3.20
2018-07-31T00:30:10.131Z,3.07
2018-07-31T00:32:38.519Z,3.63
2018-07-31T00:35:07.110Z,3.17
2018-07-31T00:37:35.496Z,3.10
2018-07-31T00:40:04.020Z,2.80
2018-07-31T00:42:32.485Z,3.27
2018-07-31T00:45:00.870Z,2.87
2018-07-31T00:47:29.342Z,2.90
2018-07-31T00:49:57.697Z,3.10
2018-07-31T00:52:26.070Z,2.90
2018-07-31T00:54:54.467Z,2.90
2018-07-31T00:57:22.876Z,3.00
2018-07-31T00:59:51.376Z,3.10
2018-07-31T01:02:19.783Z,3.40
2018-07-31T01:04:48.163Z,3.17
2018-07-31T01:07:16.596Z,3.57
2018-07-31T01:09:45.044Z,3.90
2018-07-31T01:12:13.539Z,3.30
2018-07-31T01:14:41.965Z,3.27
2018-07-31T01:17:10.401Z,3.10
2018-07-31T01:19:38.794Z,3.10
2018-07-31T01:22:08.151Z,2.80
2018-07-31T01:24:36.544Z,3.63
2018-07-31T01:27:05.028Z,2.63
2018-07-31T01:29:33.421Z,3.23
2018-07-31T01:32:01.808Z,4.07
2018-07-31T01:34:30.239Z,3.73
2018-07-31T01:36:58.647Z,2.80
2018-07-31T01:39:27.039Z,3.00
2018-07-31T01:41:55.404Z,3.03
2018-07-31T01:44:23.785Z,3.07
2018-07-31T01:46:52.203Z,2.90
2018-07-31T01:49:20.582Z,3.20
2018-07-31T01:51:48.990Z,2.90
2018-07-31T01:54:17.411Z,3.37
2018-07-31T01:56:45.820Z,2.90
2018-07-31T01:59:14.254Z,2.87
2018-07-31T02:01:42.688Z,2.90
2018-07-31T02:04:11.142Z,3.47
2018-07-31T02:06:39.521Z,2.73
2018-07-31T02:09:08.464Z,3.23
2018-07-31T02:11:36.833Z,3.13
2018-07-31T02:14:05.284Z,2.90
2018-07-31T02:16:33.712Z,2.90
2018-07-31T02:19:02.076Z,3.27
2018-07-31T02:21:30.464Z,3.23
2018-07-31T02:23:58.845Z,2.60
2018-07-31T02:26:27.248Z,2.90
2018-07-31T02:28:55.620Z,3.30
2018-07-31T02:31:24.050Z,2.97
2018-07-31T02:33:52.488Z,3.20
2018-07-31T02:36:20.939Z,3.33
2018-07-31T02:38:49.370Z,3.13
2018-07-31T02:41:17.770Z,2.80
2018-07-31T02:43:46.146Z,3.00
2018-07-31T02:46:14.584Z,2.93
2018-07-31T02:48:42.989Z,3.10
2018-07-31T02:51:11.409Z,2.77
2018-07-31T02:53:39.850Z,3.00
2018-07-31T02:56:08.270Z,3.77
2018-07-31T02:58:36.728Z,3.57
2018-07-31T03:01:05.192Z,2.80
2018-07-31T03:03:33.627Z,2.93
2018-07-31T03:06:01.992Z,3.23
2018-07-31T03:08:30.393Z,2.90
2018-07-31T03:10:58.767Z,2.77
2018-07-31T03:13:27.145Z,3.50
2018-07-31T03:15:55.555Z,3.07
2018-07-31T03:18:23.937Z,3.83
2018-07-31T03:20:52.353Z,3.33
2018-07-31T03:23:20.782Z,3.10
2018-07-31T03:25:49.131Z,3.00
2018-07-31T03:28:17.587Z,3.23
2018-07-31T03:30:45.941Z,3.50
2018-07-31T03:33:14.389Z,3.20
2018-07-31T03:35:42.848Z,3.00
2018-07-31T03:38:11.215Z,3.10
2018-07-31T03:40:40.627Z,3.33
2018-07-31T03:43:09.020Z,2.60
2018-07-31T03:45:37.431Z,3.30
2018-07-31T03:48:05.900Z,3.37
2018-07-31T03:50:34.324Z,2.80
2018-07-31T03:53:02.714Z,3.47
2018-07-31T03:55:31.104Z,3.43
2018-07-31T03:57:59.542Z,3.10
2018-07-31T04:00:27.991Z,3.00
2018-07-31T04:02:56.409Z,3.50
2018-07-31T04:05:24.838Z,4.00
2018-07-31T04:07:53.299Z,3.20
2018-07-31T04:10:21.731Z,3.40
2018-07-31T04:12:50.145Z,3.03
2018-07-31T04:15:18.560Z,3.80
2018-07-31T04:17:53.401Z,3.77
2018-07-31T04:20:22.141Z,4.60
2018-07-31T04:22:51.025Z,3.37
2018-07-31T04:25:19.433Z,3.50
2018-07-31T04:27:47.918Z,3.20
2018-07-31T04:30:16.409Z,2.70
2018-07-31T04:32:44.932Z,3.60
2018-07-31T04:35:13.438Z,2.90
2018-07-31T04:37:42.319Z,3.50
2018-07-31T04:40:10.731Z,3.67
2018-07-31T04:42:39.154Z,3.63
2018-07-31T04:45:09.004Z,3.90
2018-07-31T04:47:38.071Z,3.63
2018-07-31T04:50:06.676Z,3.47
2018-07-31T04:52:35.061Z,3.83
2018-07-31T04:55:04.371Z,4.13
2018-07-31T04:57:32.780Z,3.53
2018-07-31T05:00:01.279Z,4.27
2018-07-31T05:02:29.691Z,4.40
2018-07-31T05:04:58.126Z,4.50
2018-07-31T05:07:26.499Z,4.43
2018-07-31T05:09:54.946Z,8.10
2018-07-31T05:12:23.524Z,5.50
2018-07-31T05:14:51.925Z,4.87
2018-07-31T05:17:21.136Z,4.77
2018-07-31T05:19:49.539Z,4.77
2018-07-31T05:22:17.955Z,5.33
2018-07-31T05:24:46.343Z,4.60
2018-07-31T05:27:14.749Z,4.80
2018-07-31T05:29:43.154Z,6.70
2018-07-31T05:32:11.565Z,6.13
2018-07-31T05:34:40.081Z,5.40
2018-07-31T05:37:08.485Z,5.10
2018-07-31T05:39:36.892Z,4.77
2018-07-31T05:42:07.936Z,5.50
2018-07-31T05:44:36.448Z,5.67
2018-07-31T05:47:04.863Z,5.00
2018-07-31T05:49:33.262Z,5.57
2018-07-31T05:52:01.745Z,5.80
2018-07-31T05:54:30.117Z,5.30
2018-07-31T05:56:58.593Z,5.80
2018-07-31T05:59:27.236Z,5.37
2018-07-31T06:01:55.976Z,6.10
2018-07-31T06:04:24.780Z,5.60
2018-07-31T06:06:53.182Z,5.70
2018-07-31T06:09:21.607Z,5.77
2018-07-31T06:11:50.019Z,6.00
2018-07-31T06:14:18.404Z,7.97
2018-07-31T06:16:46.828Z,8.43
2018-07-31T06:19:15.228Z,7.67
2018-07-31T06:21:43.663Z,6.27
2018-07-31T06:24:12.059Z,7.57
2018-07-31T06:26:40.692Z,6.87
2018-07-31T06:29:09.140Z,8.67
2018-07-31T06:31:37.610Z,7.67
2018-07-31T06:34:06.202Z,9.77
2018-07-31T06:36:34.672Z,8.50
2018-07-31T06:39:03.254Z,9.03
2018-07-31T06:41:33.101Z,8.80
2018-07-31T06:44:01.595Z,8.10
2018-07-31T06:46:30.593Z,7.50
2018-07-31T06:48:58.956Z,7.07
2018-07-31T06:51:27.704Z,7.53
2018-07-31T06:53:57.771Z,6.87
2018-07-31T06:56:26.199Z,5.80
2018-07-31T06:58:54.780Z,6.90
2018-07-31T07:01:23.241Z,6.27
2018-07-31T07:03:51.712Z,6.23
2018-07-31T07:06:20.060Z,6.10
2018-07-31T07:08:48.803Z,7.07
2018-07-31T07:11:17.245Z,7.13
2018-07-31T07:13:45.645Z,7.27
2018-07-31T07:16:14.140Z,6.30
2018-07-31T07:18:42.548Z,7.47
2018-07-31T07:21:10.930Z,6.60
2018-07-31T07:23:39.296Z,6.27
2018-07-31T07:26:07.717Z,7.40
2018-07-31T07:28:36.084Z,6.43
2018-07-31T07:31:04.482Z,5.90
2018-07-31T07:33:32.914Z,5.47
2018-07-31T07:36:01.304Z,7.60
2018-07-31T07:38:29.722Z,6.50
2018-07-31T07:40:58.193Z,6.80
2018-07-31T07:43:26.622Z,6.47
2018-07-31T07:45:55.031Z,7.70
2018-07-31T07:48:23.491Z,7.50
2018-07-31T07:50:51.853Z,8.10
2018-07-31T07:53:21.323Z,7.50
2018-07-31T07:55:49.734Z,8.30
2018-07-31T07:58:18.194Z,7.80
2018-07-31T08:00:46.637Z,8.00
2018-07-31T08:03:15.080Z,8.43
2018-07-31T08:05:44.042Z,7.97
2018-07-31T08:08:12.463Z,6.83
2018-07-31T08:10:42.899Z,8.70
2018-07-31T08:13:11.678Z,7.47
2018-07-31T08:15:40.121Z,7.60
2018-07-31T08:18:08.536Z,7.83
2018-07-31T08:20:36.899Z,7.70
2018-07-31T08:23:05.490Z,8.50
2018-07-31T08:25:33.920Z,7.60
2018-07-31T08:28:02.369Z,6.73
2018-07-31T08:30:30.764Z,7.90
2018-07-31T08:32:59.220Z,8.23
2018-07-31T08:35:28.212Z,7.43
2018-07-31T08:37:57.064Z,6.43
2018-07-31T08:40:25.459Z,6.27
2018-07-31T08:42:53.943Z,6.10
2018-07-31T08:45:22.413Z,7.00
2018-07-31T08:47:50.877Z,7.23
2018-07-31T08:50:19.311Z,6.80
2018-07-31T08:52:47.740Z,5.33
2018-07-31T08:55:16.265Z,5.70
2018-07-31T08:57:44.647Z,5.40
2018-07-31T09:00:13.103Z,5.27
2018-07-31T09:02:41.522Z,4.60
2018-07-31T09:05:09.965Z,5.30
2018-07-31T09:07:38.411Z,5.83
2018-07-31T09:10:06.968Z,4.57
2018-07-31T09:12:36.099Z,3.70
2018-07-31T09:15:04.642Z,4.43
2018-07-31T09:17:33.101Z,4.80
2018-07-31T09:20:01.450Z,8.17
2018-07-31T09:22:29.864Z,8.33
2018-07-31T09:24:58.246Z,9.70
2018-07-31T09:27:27.715Z,8.93
2018-07-31T09:29:56.148Z,5.83
2018-07-31T09:32:29.912Z,10.27
2018-07-31T09:34:58.360Z,3.53
2018-07-31T09:37:27.421Z,3.70
2018-07-31T09:39:55.860Z,3.20
2018-07-31T09:42:24.249Z,3.20
2018-07-31T09:44:52.654Z,3.33
2018-07-31T09:47:21.130Z,2.93
2018-07-31T09:49:49.568Z,4.37
2018-07-31T09:52:17.946Z,3.50
2018-07-31T09:54:47.584Z,2.43
2018-07-31T09:57:16.039Z,2.10
2018-07-31T09:59:44.431Z,2.40
2018-07-31T10:02:12.822Z,2.80
2018-07-31T10:04:41.389Z,2.30
2018-07-31T10:07:09.823Z,2.50
2018-07-31T10:09:38.263Z,2.20
2018-07-31T10:12:06.753Z,2.30
2018-07-31T10:14:35.171Z,2.07
2018-07-31T10:17:04.319Z,2.00
2018-07-31T10:19:32.783Z,2.10
2018-07-31T10:22:01.213Z,2.13
2018-07-31T10:24:29.614Z,1.80
2018-07-31T10:26:58.026Z,2.17
2018-07-31T10:29:26.410Z,2.23
2018-07-31T10:31:54.846Z,2.00
2018-07-31T10:34:24.257Z,1.90
2018-07-31T10:36:53.032Z,2.43
2018-07-31T10:39:21.482Z,2.17
2018-07-31T10:41:49.898Z,2.07
2018-07-31T10:44:18.294Z,2.00
2018-07-31T10:46:46.720Z,2.10
2018-07-31T10:49:15.145Z,1.90
2018-07-31T10:51:43.561Z,1.93
2018-07-31T10:54:12.000Z,2.07
2018-07-31T10:56:40.393Z,5.67
2018-07-31T10:59:09.121Z,2.53
2018-07-31T11:01:37.494Z,2.40
2018-07-31T11:04:06.227Z,2.07
2018-07-31T11:06:34.662Z,2.00
2018-07-31T11:09:03.882Z,2.10
2018-07-31T11:11:32.809Z,1.77
2018-07-31T11:14:01.841Z,2.10
2018-07-31T11:16:30.281Z,2.10
2018-07-31T11:18:58.684Z,1.87
2018-07-31T11:21:27.056Z,2.03
2018-07-31T11:23:55.479Z,2.10
2018-07-31T11:26:24.481Z,2.17
2018-07-31T11:28:52.868Z,2.10
2018-07-31T11:31:21.321Z,2.03
2018-07-31T11:33:50.114Z,3.27
2018-07-31T11:36:18.789Z,2.60
2018-07-31T11:38:47.497Z,2.57
2018-07-31T11:41:16.044Z,2.23
2018-07-31T11:43:44.455Z,2.30
2018-07-31T11:46:12.929Z,2.47
2018-07-31T11:48:42.388Z,2.20
2018-07-31T11:51:10.771Z,2.20
2018-07-31T11:53:39.125Z,2.17
2018-07-31T11:56:07.614Z,2.30
2018-07-31T11:58:36.064Z,2.00
2018-07-31T12:01:04.547Z,2.13
2018-07-31T12:03:32.980Z,2.57
2018-07-31T12:06:01.451Z,2.57
2018-07-31T12:08:33.352Z,2.10
2018-07-31T12:11:01.860Z,2.80
2018-07-31T12:13:30.424Z,2.40
2018-07-31T12:15:58.990Z,2.70
2018-07-31T12:18:27.541Z,2.40
2018-07-31T12:20:55.971Z,2.80
2018-07-31T12:23:24.947Z,3.17
2018-07-31T12:25:54.409Z,2.97
2018-07-31T12:28:22.862Z,2.10
2018-07-31T12:30:51.567Z,2.10
2018-07-31T12:33:20.012Z,1.70
2018-07-31T12:35:48.422Z,2.37
2018-07-31T12:38:17.596Z,2.27
2018-07-31T12:40:45.938Z,2.27
2018-07-31T12:43:14.362Z,2.60
2018-07-31T12:45:42.807Z,1.90
2018-07-31T12:48:11.302Z,2.07
2018-07-31T12:50:40.599Z,2.10
2018-07-31T12:53:09.014Z,2.57
2018-07-31T12:55:37.439Z,2.37
2018-07-31T12:58:05.861Z,2.40
2018-07-31T13:00:35.167Z,2.30
2018-07-31T13:03:03.616Z,3.03
2018-07-31T13:05:32.076Z,2.17
2018-07-31T13:08:01.055Z,2.20
2018-07-31T13:10:29.554Z,2.20
2018-07-31T13:12:58.494Z,2.57
2018-07-31T13:15:26.944Z,2.20
2018-07-31T13:17:56.115Z,2.30
2018-07-31T13:20:24.595Z,2.27
2018-07-31T13:22:53.052Z,2.00
2018-07-31T13:25:22.401Z,2.37
2018-07-31T13:27:51.185Z,2.30
2018-07-31T13:30:19.600Z,2.67
2018-07-31T13:32:48.040Z,3.97
2018-07-31T13:35:16.572Z,2.70
2018-07-31T13:37:45.339Z,2.37
2018-07-31T13:40:14.118Z,2.20
2018-07-31T13:42:42.572Z,2.73
2018-07-31T13:45:10.988Z,1.70
2018-07-31T13:47:39.404Z,1.63
2018-07-31T13:50:07.883Z,1.70
2018-07-31T13:52:36.346Z,1.70
2018-07-31T13:55:05.057Z,2.00
2018-07-31T13:57:33.582Z,2.30
2018-07-31T14:00:02.041Z,1.60
2018-07-31T14:02:31.424Z,1.90
2018-07-31T14:05:00.744Z,1.63
2018-07-31T14:07:29.194Z,1.70
2018-07-31T14:09:57.612Z,2.00
2018-07-31T14:12:26.074Z,1.70
2018-07-31T14:14:54.525Z,1.90
2018-07-31T14:17:22.944Z,1.77
2018-07-31T14:19:51.333Z,1.87
2018-07-31T14:22:19.732Z,2.20
2018-07-31T14:24:48.764Z,1.60
2018-07-31T14:27:18.106Z,1.90
2018-07-31T14:29:46.544Z,1.50
2018-07-31T14:32:14.943Z,1.97
2018-07-31T14:34:43.397Z,1.67
2018-07-31T14:37:11.811Z,2.23
2018-07-31T14:39:40.224Z,2.27
2018-07-31T14:42:09.104Z,1.80
2018-07-31T14:44:37.572Z,1.70
2018-07-31T14:47:06.021Z,1.80
2018-07-31T14:49:34.455Z,1.63
2018-07-31T14:52:02.837Z,1.80
2018-07-31T14:54:31.239Z,1.50
2018-07-31T14:56:59.761Z,1.77
2018-07-31T14:59:28.779Z,1.67
2018-07-31T15:01:57.187Z,1.80
2018-07-31T15:04:25.592Z,1.80
2018-07-31T15:06:54.006Z,1.50
2018-07-31T15:09:22.408Z,1.97
2018-07-31T15:11:50.927Z,1.70
2018-07-31T15:14:19.325Z,1.80
2018-07-31T15:16:47.789Z,1.40
2018-07-31T15:19:17.140Z,1.60
2018-07-31T15:21:45.585Z,1.80
2018-07-31T15:24:16.216Z,1.63
2018-07-31T15:26:44.671Z,2.10
2018-07-31T15:29:13.097Z,1.30
2018-07-31T15:31:41.559Z,1.57
2018-07-31T15:34:09.958Z,1.67
2018-07-31T15:36:38.444Z,1.53
2018-07-31T15:39:11.233Z,1.80
2018-07-31T15:41:40.876Z,1.60
2018-07-31T15:44:09.499Z,6.00
2018-07-31T15:46:37.916Z,1.50
2018-07-31T15:49:06.470Z,1.93
2018-07-31T15:51:34.876Z,1.70
2018-07-31T15:54:03.326Z,1.40
2018-07-31T15:56:31.718Z,1.53
2018-07-31T15:59:00.144Z,1.40
2018-07-31T16:01:29.415Z,1.30
2018-07-31T16:03:58.617Z,1.40
2018-07-31T16:06:26.995Z,1.50
2018-07-31T16:08:55.482Z,1.37
2018-07-31T16:11:23.904Z,1.47
2018-07-31T16:13:52.631Z,1.90
2018-07-31T16:16:21.065Z,1.70
2018-07-31T16:18:49.495Z,1.30
2018-07-31T16:21:18.560Z,1.40
2018-07-31T16:23:46.966Z,1.67
2018-07-31T16:26:15.432Z,1.63
2018-07-31T16:28:43.841Z,1.67
2018-07-31T16:31:12.286Z,1.40
2018-07-31T16:33:40.784Z,1.50
2018-07-31T16:36:09.253Z,1.60
2018-07-31T16:38:37.628Z,1.57
2018-07-31T16:41:06.030Z,1.20
2018-07-31T16:43:34.392Z,1.90
2018-07-31T16:46:03.167Z,1.80
2018-07-31T16:48:31.620Z,2.00
2018-07-31T16:51:00.065Z,3.00
2018-07-31T16:53:28.463Z,2.53
2018-07-31T16:55:56.833Z,2.90
2018-07-31T16:58:25.277Z,1.57
2018-07-31T17:00:53.685Z,1.50
2018-07-31T17:03:22.392Z,1.60
2018-07-31T17:05:50.818Z,1.23
2018-07-31T17:08:19.240Z,2.70
2018-07-31T17:10:47.691Z,1.60
2018-07-31T17:13:16.098Z,2.37
2018-07-31T17:15:44.513Z,1.87
2018-07-31T17:18:13.011Z,3.50
2018-07-31T17:20:41.431Z,1.63
2018-07-31T17:23:09.841Z,2.07
2018-07-31T17:25:38.292Z,1.63
2018-07-31T17:28:06.682Z,3.73
2018-07-31T17:30:35.121Z,2.47
2018-07-31T17:33:05.824Z,1.80
2018-07-31T17:35:34.419Z,2.10
2018-07-31T17:38:02.869Z,1.97
2018-07-31T17:40:31.265Z,1.93
2018-07-31T17:42:59.672Z,1.60
2018-07-31T17:45:28.088Z,1.73
2018-07-31T17:47:56.472Z,2.20
2018-07-31T17:50:25.007Z,2.17
2018-07-31T17:52:53.512Z,2.07
2018-07-31T17:55:21.964Z,2.10
2018-07-31T17:57:50.360Z,1.80
2018-07-31T18:00:18.822Z,2.10
2018-07-31T18:02:47.248Z,1.60
2018-07-31T18:05:15.677Z,3.63
2018-07-31T18:07:44.186Z,2.33
2018-07-31T18:10:12.595Z,7.10
2018-07-31T18:12:41.000Z,2.40
2018-07-31T18:15:09.425Z,3.43
2018-07-31T18:17:37.919Z,3.10
2018-07-31T18:20:06.486Z,3.17
2018-07-31T18:22:34.884Z,3.00
2018-07-31T18:25:03.401Z,2.90
2018-07-31T18:27:31.788Z,2.33
2018-07-31T18:30:00.231Z,2.40
2018-07-31T18:32:28.824Z,2.20
2018-07-31T18:34:57.313Z,2.50
2018-07-31T18:37:25.786Z,2.50
2018-07-31T18:39:54.494Z,2.90
2018-07-31T18:42:22.968Z,2.37
2018-07-31T18:44:51.411Z,2.90
2018-07-31T18:47:19.855Z,2.50
2018-07-31T18:49:48.281Z,2.50
2018-07-31T18:52:16.702Z,7.10
2018-07-31T18:54:45.143Z,2.33
2018-07-31T18:57:14.132Z,3.07
2018-07-31T18:59:42.817Z,2.20
2018-07-31T19:02:11.237Z,2.77
2018-07-31T19:04:39.695Z,2.90
2018-07-31T19:07:08.092Z,2.40
2018-07-31T19:09:36.567Z,2.40
2018-07-31T19:12:05.096Z,3.80
2018-07-31T19:14:33.532Z,2.50
2018-07-31T19:17:02.054Z,2.20
2018-07-31T19:19:30.573Z,2.37
2018-07-31T19:21:59.062Z,2.90
2018-07-31T19:24:27.920Z,3.43
2018-07-31T19:26:56.392Z,3.03
2018-07-31T19:29:24.773Z,2.83
2018-07-31T19:31:53.169Z,3.10
2018-07-31T19:34:21.614Z,2.73
2018-07-31T19:36:50.026Z,3.00
2018-07-31T19:39:18.445Z,2.97
2018-07-31T19:41:46.959Z,2.90
2018-07-31T19:44:15.364Z,5.17
2018-07-31T19:46:43.824Z,16.60
2018-07-31T19:49:12.267Z,3.30
2018-07-31T19:51:40.706Z,2.53
2018-07-31T19:54:09.168Z,3.03
2018-07-31T19:56:37.591Z,2.93
2018-07-31T19:59:06.356Z,2.97
2018-07-31T20:01:34.939Z,2.70
2018-07-31T20:04:03.399Z,3.20
2018-07-31T20:06:31.960Z,2.90
2018-07-31T20:09:00.383Z,2.47
2018-07-31T20:11:28.860Z,2.83
2018-07-31T20:13:57.297Z,4.13
2018-07-31T20:16:25.929Z,2.97
2018-07-31T20:18:54.333Z,3.13
2018-07-31T20:21:22.798Z,2.50
2018-07-31T20:23:51.225Z,2.67
2018-07-31T20:26:19.671Z,3.37
2018-07-31T20:28:48.139Z,2.63
2018-07-31T20:31:16.585Z,2.33
2018-07-31T20:33:45.000Z,3.10
2018-07-31T20:36:14.318Z,3.10
2018-07-31T20:38:42.760Z,2.73
2018-07-31T20:41:11.175Z,2.43
2018-07-31T20:43:39.638Z,2.60
2018-07-31T20:46:08.143Z,2.83
2018-07-31T20:48:36.585Z,3.10
2018-07-31T20:51:05.047Z,3.13
2018-07-31T20:53:33.484Z,2.60
2018-07-31T20:56:01.856Z,2.40
2018-07-31T20:58:30.272Z,4.50
2018-07-31T21:00:58.997Z,2.60
2018-07-31T21:03:27.420Z,2.80
2018-07-31T21:05:55.840Z,2.20
2018-07-31T21:08:24.265Z,2.70
2018-07-31T21:10:52.740Z,2.03
2018-07-31T21:13:21.143Z,2.10
2018-07-31T21:15:49.601Z,2.57
2018-07-31T21:18:18.068Z,2.57
2018-07-31T21:20:46.479Z,3.50
2018-07-31T21:23:14.874Z,3.10
2018-07-31T21:25:43.360Z,2.80
2018-07-31T21:28:11.760Z,2.20
2018-07-31T21:30:40.217Z,3.67
2018-07-31T21:33:08.615Z,2.73
2018-07-31T21:35:37.025Z,2.20
2018-07-31T21:38:05.526Z,2.80
2018-07-31T21:40:33.907Z,2.43
2018-07-31T21:43:02.308Z,2.40
2018-07-31T21:45:30.687Z,2.80
2018-07-31T21:47:59.124Z,2.37
2018-07-31T21:50:27.550Z,2.20
2018-07-31T21:52:55.968Z,2.73
2018-07-31T21:55:24.594Z,2.53
2018-07-31T21:57:52.948Z,2.60
2018-07-31T22:00:21.370Z,4.00
2018-07-31T22:02:49.797Z,2.07
2018-07-31T22:05:18.210Z,2.20
2018-07-31T22:07:46.669Z,2.50
2018-07-31T22:10:15.064Z,2.37
2018-07-31T22:12:43.488Z,2.27
2018-07-31T22:15:11.862Z,2.40
2018-07-31T22:17:40.297Z,2.43
2018-07-31T22:20:08.726Z,1.90
2018-07-31T22:22:37.150Z,1.93
2018-07-31T22:25:05.697Z,2.10
2018-07-31T22:27:34.129Z,2.03
2018-07-31T22:30:02.564Z,2.37
2018-07-31T22:32:30.996Z,2.60
2018-07-31T22:34:59.373Z,1.90
2018-07-31T22:37:27.891Z,2.23
2018-07-31T22:39:56.332Z,2.40
2018-07-31T22:42:24.752Z,2.37
2018-07-31T22:44:53.824Z,2.50
2018-07-31T22:47:22.704Z,2.40
2018-07-31T22:49:51.125Z,2.30
2018-07-31T22:52:19.760Z,2.10
2018-07-31T22:54:48.155Z,2.50
2018-07-31T22:57:17.619Z,2.07
2018-07-31T22:59:46.060Z,2.10
2018-07-31T23:02:14.471Z,2.37
2018-07-31T23:04:42.891Z,2.00
2018-07-31T23:07:12.161Z,2.00
2018-07-31T23:09:40.529Z,2.30
2018-07-31T23:12:08.922Z,2.10
2018-07-31T23:14:37.377Z,2.03
2018-07-31T23:17:05.828Z,2.60
2018-07-31T23:19:34.275Z,2.00
2018-07-31T23:22:02.680Z,2.33
2018-07-31T23:24:31.110Z,2.60
2018-07-31T23:26:59.508Z,2.30
2018-07-31T23:29:27.916Z,2.40
2018-07-31T23:31:56.331Z,2.77
2018-07-31T23:34:24.749Z,2.40
2018-07-31T23:36:53.138Z,2.57
2018-07-31T23:39:21.563Z,2.40
2018-07-31T23:41:49.971Z,2.47
2018-07-31T23:44:18.336Z,2.57
2018-07-31T23:46:46.726Z,2.23
2018-07-31T23:49:15.160Z,2.37
2018-07-31T23:51:43.554Z,2.23
2018-07-31T23:54:12.000Z,2.47
2018-07-31T23:56:40.468Z,2.30
2018-07-31T23:59:08.854Z,2.30
